Pa Furnace, Pennsylvania
Current Conditions -  °F | °C
As of 8:53 AM on Friday 28 Nov 2014 (Local Time) from KUNV Reporting Station
Broken Clouds Broken Clouds  
Wind Chill: 15°   Ceiling: 3000
Heat Index: 27°   Visibility: 10mi
Dew Point: 18°   Wind: 14mph
Humidity: 69%   Direction: 300°WNW
Pressure: 30.24"   Gusts: NA
Location:  40.7134°N, 77.9879°W
Report Text: KUNV 281353Z 30012KT 10SM BKN030 M03/M08 A3024
Loading
Personal Weather Stations






























Interactive Weather Map New forecast layout! Learn more

10-Day Weather Forecast

Advertisements
Track Severe Weather on mobile